Station Historical Data
Daily Summary for November 14, 2017 Units:  English    Metric   Both
« Previous Day
Next Day »
Daily Weekly Monthly Yearly Custom
  High: Low: Average:
Temperature: 58.4 °F 39.0 °F 47.2 °F
Dew Point: 45.8 °F 36.9 °F 42 °F
Humidity: 94% 61% 83%
Wind Speed: 4.6mph 0.0mph 0.8mph
Wind Gust: 4.6mph - -
Wind- - West
Pressure: 30.35 in 30.21 in -
Precipitation: 0.00 in    
Historical Graphs
 
 
Tabular Data for November 14, 2017
Time Temperature Dew Point Pressure Wind Wind Speed Wind Gust Humidity Rainfall Rate (Hourly) Conditions
00:02 42.5 °F 39.5 °F 30.31 in Calm     89% 0.00 in CLR
00:07 42.2 °F 39.2 °F 30.31 in Calm     89% 0.00 in CLR
00:17 41.9 °F 39.2 °F 30.31 in Calm     90% 0.00 in CLR
00:22 41.7 °F 39.0 °F 30.31 in Calm     90% 0.00 in CLR
00:27 41.5 °F 38.8 °F 30.31 in Calm     90% 0.00 in CLR
00:32 41.4 °F 38.7 °F 30.31 in Calm     90% 0.00 in CLR
00:38 41.3 °F 38.6 °F 30.31 in Calm     90% 0.00 in CLR
00:43 41.1 °F 38.4 °F 30.31 in Calm     90% 0.00 in CLR
00:48 41.0 °F 38.6 °F 30.31 in Calm     91% 0.00 in CLR
00:53 41.0 °F 38.6 °F 30.31 in Calm     91% 0.00 in CLR
00:58 40.8 °F 38.4 °F 30.31 in Calm     91% 0.00 in CLR
01:03 40.8 °F 38.4 °F 30.31 in Calm     91% 0.00 in CLR
01:08 40.7 °F 38.3 °F 30.31 in Calm     91% 0.00 in CLR
01:13 40.6 °F 38.2 °F 30.31 in Calm     91% 0.00 in CLR
01:18 40.5 °F 38.1 °F 30.30 in Calm     91% 0.00 in CLR
01:23 40.4 °F 38.0 °F 30.30 in Calm     91% 0.00 in CLR
01:28 40.4 °F 38.0 °F 30.30 in Calm     91% 0.00 in CLR
01:33 40.3 °F 37.9 °F 30.30 in Calm     91% 0.00 in CLR
01:38 40.2 °F 37.8 °F 30.30 in Calm     91% 0.00 in CLR
01:43 40.1 °F 37.7 °F 30.30 in Calm     91% 0.00 in CLR
01:48 40.1 °F 37.7 °F 30.30 in Calm     91% 0.00 in CLR
01:53 40.1 °F 38.0 °F 30.30 in NE 1.2 mph   92% 0.00 in CLR
01:58 40.0 °F 37.9 °F 30.30 in NE 1.2 mph   92% 0.00 in CLR
02:03 40.0 °F 37.9 °F 30.30 in NE 1.2 mph   92% 0.00 in CLR
02:08 40.0 °F 37.9 °F 30.30 in Calm     92% 0.00 in CLR
02:13 39.9 °F 37.8 °F 30.30 in Calm     92% 0.00 in CLR
02:18 39.9 °F 37.8 °F 30.30 in Calm     92% 0.00 in CLR
02:24 39.8 °F 37.7 °F 30.30 in Calm     92% 0.00 in CLR
02:29 39.8 °F 37.7 °F 30.30 in Calm     92% 0.00 in CLR
02:34 39.7 °F 37.6 °F 30.30 in Calm     92% 0.00 in CLR
02:44 39.7 °F 37.6 °F 30.30 in Calm     92% 0.00 in CLR
02:49 39.7 °F 37.6 °F 30.30 in Calm     92% 0.00 in CLR
02:54 39.6 °F 37.5 °F 30.30 in Calm     92% 0.00 in CLR
02:59 39.5 °F 37.4 °F 30.30 in Calm     92% 0.00 in CLR
03:04 39.5 °F 37.4 °F 30.30 in Calm     92% 0.00 in CLR
03:09 39.4 °F 37.3 °F 30.30 in Calm     92% 0.00 in CLR
03:14 39.3 °F 37.2 °F 30.30 in Calm     92% 0.00 in CLR
03:19 39.3 °F 37.2 °F 30.30 in Calm     92% 0.00 in CLR
03:24 39.2 °F 37.1 °F 30.30 in Calm     92% 0.00 in CLR
03:29 39.1 °F 37.0 °F 30.30 in Calm     92% 0.00 in CLR
03:34 39.0 °F 36.9 °F 30.30 in Calm     92% 0.00 in CLR
03:39 39.1 °F 37.0 °F 30.30 in Calm     92% 0.00 in CLR
03:44 39.2 °F 37.1 °F 30.30 in Calm     92% 0.00 in CLR
03:50 39.3 °F 37.4 °F 30.30 in Calm     93% 0.00 in CLR
03:55 39.6 °F 37.7 °F 30.30 in Calm     93% 0.00 in FEW
04:00 39.8 °F 37.9 °F 30.30 in Calm     93% 0.00 in FEW
04:01 39.9 °F 38.0 °F 30.30 in Calm     93% 0.00 in FEW
04:06 40.3 °F 38.4 °F 30.30 in Calm     93% 0.00 in SCT
04:20 41.7 °F 39.8 °F 30.31 in Calm     93% 0.00 in SCT
04:25 42.2 °F 40.6 °F 30.31 in Calm     94% 0.00 in SCT
04:30 42.6 °F 41.0 °F 30.30 in Calm     94% 0.00 in SCT
04:35 42.8 °F 41.2 °F 30.30 in Calm     94% 0.00 in SCT
04:40 42.9 °F 41.3 °F 30.31 in Calm     94% 0.00 in SCT
04:45 42.9 °F 41.3 °F 30.30 in Calm     94% 0.00 in SCT
04:50 42.9 °F 41.0 °F 30.31 in Calm     93% 0.00 in SCT
04:55 42.9 °F 41.0 °F 30.30 in Calm     93% 0.00 in SCT
05:00 42.9 °F 41.0 °F 30.30 in Calm     93% 0.00 in SCT
05:05 42.9 °F 41.0 °F 30.31 in Calm     93% 0.00 in CLR
05:10 42.8 °F 40.9 °F 30.31 in Calm     93% 0.00 in CLR
05:15 42.8 °F 40.9 °F 30.31 in Calm     93% 0.00 in CLR
05:20 42.7 °F 40.8 °F 30.31 in Calm     93% 0.00 in CLR
05:25 42.7 °F 40.8 °F 30.31 in Calm     93% 0.00 in CLR
05:30 42.6 °F 40.7 °F 30.30 in Calm     93% 0.00 in CLR
05:35 42.6 °F 40.7 °F 30.30 in Calm     93% 0.00 in FEW
05:40 42.6 °F 40.7 °F 30.31 in Calm     93% 0.00 in FEW
05:45 42.7 °F 40.8 °F 30.31 in Calm     93% 0.00 in FEW
05:50 42.6 °F 40.7 °F 30.30 in Calm     93% 0.00 in FEW
05:55 42.6 °F 40.7 °F 30.30 in Calm     93% 0.00 in FEW
06:00 42.5 °F 40.6 °F 30.30 in Calm     93% 0.00 in FEW
06:05 42.4 °F 40.5 °F 30.30 in Calm     93% 0.00 in SCT
06:11 42.4 °F 40.5 °F 30.30 in WNW 1.2 mph 1.2 mph 93% 0.00 in SCT
06:16 42.3 °F 40.4 °F 30.31 in West 1.2 mph   93% 0.00 in SCT
06:21 42.2 °F 40.3 °F 30.30 in West 1.2 mph   93% 0.00 in SCT
06:31 42.2 °F 40.3 °F 30.31 in Calm     93% 0.00 in SCT
06:36 42.2 °F 40.3 °F 30.31 in Calm     93% 0.00 in SCT
06:41 42.5 °F 40.6 °F 30.32 in West 1.2 mph   93% 0.00 in SCT
06:46 42.5 °F 40.6 °F 30.32 in West 1.2 mph   93% 0.00 in SCT
06:51 42.6 °F 40.7 °F 30.32 in Calm     93% 0.00 in SCT
06:56 42.5 °F 40.6 °F 30.32 in Calm     93% 0.00 in SCT
07:01 42.5 °F 40.6 °F 30.32 in Calm     93% 0.00 in BKN
07:06 42.4 °F 40.5 °F 30.32 in Calm     93% 0.00 in BKN
07:11 42.4 °F 40.5 °F 30.32 in Calm     93% 0.00 in BKN
07:16 42.4 °F 40.5 °F 30.32 in Calm     93% 0.00 in BKN
07:21 42.5 °F 40.6 °F 30.33 in Calm     93% 0.00 in BKN
07:26 42.5 °F 40.6 °F 30.33 in Calm     93% 0.00 in BKN
07:31 42.4 °F 40.5 °F 30.33 in Calm     93% 0.00 in BKN
07:42 42.6 °F 40.7 °F 30.34 in Calm     93% 0.00 in BKN
07:47 42.6 °F 40.7 °F 30.34 in Calm     93% 0.00 in BKN
07:52 42.7 °F 40.8 °F 30.34 in Calm     93% 0.00 in BKN
07:57 42.8 °F 40.9 °F 30.34 in Calm     93% 0.00 in BKN
08:02 42.9 °F 41.0 °F 30.34 in Calm     93% 0.00 in BKN
08:07 43.0 °F 41.1 °F 30.34 in Calm     93% 0.00 in BKN
08:12 43.2 °F 41.3 °F 30.34 in Calm     93% 0.00 in BKN
08:17 43.4 °F 41.5 °F 30.34 in Calm     93% 0.00 in BKN
08:22 43.5 °F 41.6 °F 30.35 in West 1.2 mph   93% 0.00 in BKN
08:27 43.7 °F 41.8 °F 30.35 in West 1.2 mph   93% 0.00 in BKN
08:32 43.9 °F 42.0 °F 30.35 in Calm     93% 0.00 in BKN
08:37 44.0 °F 42.1 °F 30.35 in West 1.2 mph   93% 0.00 in BKN
08:42 44.3 °F 42.4 °F 30.35 in WNW 1.2 mph   93% 0.00 in BKN
08:47 44.4 °F 42.2 °F 30.35 in WNW 1.2 mph   92% 0.00 in BKN
08:52 44.6 °F 42.4 °F 30.35 in WNW 1.2 mph   92% 0.00 in BKN
08:57 44.8 °F 42.3 °F 30.35 in WNW 1.2 mph   91% 0.00 in BKN
09:02 44.9 °F 42.1 °F 30.35 in West 1.2 mph   90% 0.00 in BKN
09:07 45.1 °F 42.3 °F 30.35 in West 1.2 mph   90% 0.00 in BKN
09:13 45.2 °F 42.2 °F 30.34 in West 2.3 mph 2.3 mph 89% 0.00 in BKN
09:18 45.5 °F 42.4 °F 30.35 in West 2.3 mph   89% 0.00 in BKN
09:23 45.7 °F 42.6 °F 30.35 in West 2.3 mph 2.3 mph 89% 0.00 in BKN
09:28 46.1 °F 42.7 °F 30.35 in West 2.3 mph 2.3 mph 88% 0.00 in BKN
09:33 46.4 °F 42.7 °F 30.35 in West 2.3 mph 2.3 mph 87% 0.00 in BKN
09:38 46.6 °F 42.6 °F 30.34 in WNW 2.3 mph 2.3 mph 86% 0.00 in BKN
09:43 46.7 °F 42.4 °F 30.35 in West 4.6 mph   85% 0.00 in BKN
09:48 46.9 °F 42.6 °F 30.35 in West 4.6 mph   85% 0.00 in BKN
09:53 47.0 °F 42.4 °F 30.35 in West 3.5 mph 3.5 mph 84% 0.00 in BKN
09:58 47.1 °F 42.5 °F 30.35 in West 3.5 mph   84% 0.00 in BKN
10:03 47.4 °F 42.5 °F 30.35 in West 3.5 mph 3.5 mph 83% 0.00 in BKN
10:08 48.2 °F 43.3 °F 30.35 in West 3.5 mph 3.5 mph 83% 0.00 in BKN
10:13 49.3 °F 43.7 °F 30.35 in West 3.5 mph 3.5 mph 81% 0.00 in BKN
10:14 49.4 °F 43.8 °F 30.35 in West 3.5 mph 3.5 mph 81% 0.00 in BKN
10:19 50.2 °F 43.9 °F 30.35 in NW 2.3 mph   79% 0.00 in BKN
10:24 50.9 °F 43.9 °F 30.35 in NW 2.3 mph 2.3 mph 77% 0.00 in BKN
10:29 50.8 °F 42.8 °F 30.35 in WNW 2.3 mph 2.3 mph 74% 0.00 in BKN
10:34 50.8 °F 43.2 °F 30.35 in WNW 2.3 mph 2.3 mph 75% 0.00 in BKN
10:39 51.0 °F 43.7 °F 30.35 in WNW 3.5 mph 3.5 mph 76% 0.00 in BKN
10:44 51.8 °F 43.8 °F 30.35 in WNW 3.5 mph 3.5 mph 74% 0.00 in BKN
10:49 52.1 °F 43.3 °F 30.35 in WNW 2.3 mph 2.3 mph 72% 0.00 in BKN
10:54 52.1 °F 43.3 °F 30.35 in WNW 2.3 mph 2.3 mph 72% 0.00 in BKN
10:59 51.7 °F 43.3 °F 30.35 in West 3.5 mph 3.5 mph 73% 0.00 in BKN
11:04 51.6 °F 43.6 °F 30.35 in West 3.5 mph 3.5 mph 74% 0.00 in SCT
11:09 51.9 °F 43.5 °F 30.34 in WNW 1.2 mph   73% 0.00 in SCT
11:14 52.2 °F 43.4 °F 30.34 in WNW 2.3 mph 2.3 mph 72% 0.00 in SCT
11:20 52.3 °F 43.9 °F 30.34 in NW 2.3 mph   73% 0.00 in SCT
11:25 52.8 °F 44.4 °F 30.34 in Calm   2.0 mph 73% 0.00 in SCT
11:30 53.0 °F 44.2 °F 30.34 in WSW 2.3 mph 2.3 mph 72% 0.00 in SCT
11:35 53.2 °F 45.1 °F 30.33 in WNW 2.3 mph 2.3 mph 74% 0.00 in SCT
11:40 53.5 °F 44.3 °F 30.33 in WNW 2.3 mph 2.3 mph 71% 0.00 in SCT
11:45 53.6 °F 44.4 °F 30.33 in WNW 2.3 mph   71% 0.00 in SCT
11:50 53.8 °F 44.2 °F 30.32 in NW 2.3 mph 2.3 mph 70% 0.00 in SCT
11:55 54.0 °F 44.8 °F 30.32 in WNW 1.2 mph 1.2 mph 71% 0.00 in SCT
12:00 54.4 °F 44.8 °F 30.31 in NW 1.2 mph 1.2 mph 70% 0.00 in SCT
12:05 54.6 °F 45.0 °F 30.31 in West 3.5 mph 3.5 mph 70% 0.00 in FEW
12:10 54.5 °F 44.5 °F 30.31 in West 3.5 mph 3.5 mph 69% 0.00 in FEW
12:15 54.9 °F 44.9 °F 30.30 in WNW 2.3 mph 2.3 mph 69% 0.00 in FEW
12:25 55.3 °F 44.9 °F 30.29 in WNW 1.2 mph 1.2 mph 68% 0.00 in FEW
12:30 55.5 °F 44.7 °F 30.29 in WNW 1.2 mph   67% 0.00 in FEW
12:35 56.1 °F 45.3 °F 30.29 in WNW 1.2 mph 1.2 mph 67% 0.00 in FEW
12:40 56.4 °F 44.8 °F 30.29 in West 2.3 mph 2.3 mph 65% 0.00 in FEW
12:45 56.4 °F 44.8 °F 30.29 in NW 2.3 mph 2.3 mph 65% 0.00 in FEW
12:50 56.5 °F 44.5 °F 30.28 in WNW 3.5 mph 3.5 mph 64% 0.00 in FEW
12:55 56.5 °F 44.5 °F 30.28 in WNW 3.5 mph   64% 0.00 in FEW
13:00 56.3 °F 44.7 °F 30.28 in West 3.5 mph 3.5 mph 65% 0.00 in FEW
13:05 56.4 °F 45.6 °F 30.27 in West 2.3 mph 2.3 mph 67% 0.00 in FEW
13:10 57.1 °F 45.8 °F 30.27 in WNW 2.3 mph   66% 0.00 in FEW
13:15 57.6 °F 44.7 °F 30.27 in NW 2.3 mph 2.3 mph 62% 0.00 in FEW
13:20 57.7 °F 44.8 °F 30.27 in NW 3.5 mph 3.5 mph 62% 0.00 in FEW
13:25 57.7 °F 44.8 °F 30.26 in WNW 3.5 mph 3.5 mph 62% 0.00 in FEW
13:31 58.0 °F 45.0 °F 30.26 in West 3.5 mph   62% 0.00 in FEW
13:36 58.4 °F 45.4 °F 30.26 in WNW 2.3 mph 2.3 mph 62% 0.00 in FEW
13:41 58.4 °F 45.4 °F 30.26 in WNW 1.2 mph 1.2 mph 62% 0.00 in FEW
13:46 58.4 °F 45.4 °F 30.26 in WNW 4.6 mph 4.6 mph 62% 0.00 in FEW
13:51 57.7 °F 44.8 °F 30.26 in WNW 4.6 mph 4.6 mph 62% 0.00 in FEW
13:56 57.5 °F 45.4 °F 30.26 in West 4.6 mph   64% 0.00 in FEW
14:01 57.4 °F 44.9 °F 30.26 in SSW 2.3 mph   63% 0.00 in FEW
14:06 57.2 °F 45.1 °F 30.25 in West 1.2 mph   64% 0.00 in FEW
14:11 56.7 °F 44.7 °F 30.25 in WNW 1.2 mph   64% 0.00 in FEW
14:16 56.4 °F 44.4 °F 30.25 in West 1.2 mph   64% 0.00 in FEW
14:18 56.3 °F 44.3 °F 30.25 in West 1.2 mph   64% 0.00 in FEW
14:23 56.2 °F 45.0 °F 30.24 in Calm     66% 0.00 in FEW
14:28 56.2 °F 44.2 °F 30.24 in West 1.2 mph   64% 0.00 in FEW
14:33 56.6 °F 43.7 °F 30.24 in West 1.2 mph   62% 0.00 in FEW
14:38 57.0 °F 44.9 °F 30.24 in WSW 1.2 mph 1.2 mph 64% 0.00 in FEW
14:43 57.3 °F 44.8 °F 30.23 in West 1.2 mph 1.2 mph 63% 0.00 in FEW
14:48 57.5 °F 45.0 °F 30.23 in WNW 1.2 mph 1.2 mph 63% 0.00 in FEW
14:53 57.5 °F 44.6 °F 30.23 in WNW 2.3 mph 2.3 mph 62% 0.00 in FEW
14:58 57.6 °F 45.1 °F 30.23 in WNW 2.3 mph 2.3 mph 63% 0.00 in FEW
15:03 57.6 °F 44.2 °F 30.23 in NW 2.3 mph 2.3 mph 61% 0.00 in FEW
15:09 57.4 °F 44.9 °F 30.23 in WNW 2.3 mph   63% 0.00 in FEW
15:13 57.5 °F 45.0 °F 30.23 in WSW 2.3 mph 2.3 mph 63% 0.00 in FEW
15:19 57.5 °F 45.0 °F 30.23 in SSE 2.3 mph   63% 0.00 in FEW
15:29 57.4 °F 44.5 °F 30.23 in West 2.3 mph   62% 0.00 in SCT
15:34 57.3 °F 44.4 °F 30.22 in West 1.2 mph   62% 0.00 in SCT
15:39 57.3 °F 44.8 °F 30.22 in West 1.2 mph   63% 0.00 in SCT
15:45 57.3 °F 44.8 °F 30.22 in West 1.2 mph   63% 0.00 in CLR
15:50 57.5 °F 45.4 °F 30.22 in Calm     64% 0.00 in SCT
15:55 57.5 °F 44.6 °F 30.22 in West 1.2 mph 1.2 mph 62% 0.00 in SCT
16:00 57.4 °F 44.5 °F 30.22 in SE 2.3 mph 2.3 mph 62% 0.00 in SCT
16:05 57.2 °F 44.7 °F 30.22 in ESE 2.3 mph   63% 0.00 in SCT
16:15 57.2 °F 45.5 °F 30.22 in Calm     65% 0.00 in SCT
16:21 57.0 °F 44.9 °F 30.22 in Calm     64% 0.00 in FEW
16:26 56.8 °F 45.6 °F 30.22 in Calm     66% 0.00 in FEW
16:31 56.3 °F 45.5 °F 30.22 in Calm     67% 0.00 in FEW
16:36 56.1 °F 45.7 °F 30.22 in Calm     68% 0.00 in FEW
16:41 55.7 °F 45.3 °F 30.22 in Calm     68% 0.00 in FEW
16:46 55.4 °F 45.8 °F 30.22 in Calm     70% 0.00 in FEW
16:51 55.1 °F 45.1 °F 30.22 in Calm     69% 0.00 in FEW
16:56 54.7 °F 45.1 °F 30.22 in Calm     70% 0.00 in FEW
17:01 54.5 °F 45.3 °F 30.22 in Calm     71% 0.00 in FEW
17:06 54.2 °F 45.0 °F 30.22 in Calm     71% 0.00 in FEW
17:11 53.9 °F 45.1 °F 30.22 in Calm     72% 0.00 in FEW
17:17 53.7 °F 44.9 °F 30.21 in Calm     72% 0.00 in FEW
17:20 40.4 °F 38.3 °F 30.24 in Calm     92% 0.00 in
17:22 53.4 °F 44.6 °F 30.21 in Calm     72% 0.00 in FEW
17:27 53.2 °F 44.8 °F 30.22 in Calm     73% 0.00 in FEW
17:32 52.9 °F 44.8 °F 30.22 in Calm     74% 0.00 in FEW
17:37 52.6 °F 44.5 °F 30.22 in Calm     74% 0.00 in FEW
17:42 52.3 °F 45.0 °F 30.22 in Calm     76% 0.00 in FEW
17:47 52.0 °F 44.7 °F 30.22 in Calm     76% 0.00 in FEW
17:52 51.6 °F 44.6 °F 30.22 in Calm     77% 0.00 in FEW
17:57 51.3 °F 44.3 °F 30.22 in Calm     77% 0.00 in FEW
18:02 50.9 °F 44.3 °F 30.22 in Calm     78% 0.00 in FEW
18:07 50.6 °F 44.3 °F 30.22 in Calm     79% 0.00 in FEW
18:13 50.2 °F 43.9 °F 30.22 in Calm     79% 0.00 in FEW
18:18 49.8 °F 43.9 °F 30.22 in Calm     80% 0.00 in FEW
18:23 49.4 °F 43.8 °F 30.22 in Calm     81% 0.00 in FEW
18:28 49.1 °F 43.5 °F 30.22 in Calm     81% 0.00 in FEW
18:33 48.9 °F 43.6 °F 30.22 in Calm     82% 0.00 in FEW
18:38 48.7 °F 43.8 °F 30.22 in Calm     83% 0.00 in FEW
18:43 48.5 °F 43.6 °F 30.22 in Calm     83% 0.00 in FEW
18:48 48.2 °F 43.6 °F 30.22 in Calm     84% 0.00 in FEW
18:53 48.1 °F 43.8 °F 30.22 in Calm     85% 0.00 in FEW
18:58 48.1 °F 43.8 °F 30.22 in Calm     85% 0.00 in FEW
19:03 47.9 °F 43.6 °F 30.22 in Calm     85% 0.00 in FEW
19:08 47.7 °F 43.4 °F 30.23 in Calm     85% 0.00 in FEW
19:13 47.4 °F 43.4 °F 30.23 in Calm     86% 0.00 in FEW
19:19 47.2 °F 43.2 °F 30.23 in Calm     86% 0.00 in FEW
19:24 47.0 °F 43.3 °F 30.23 in Calm     87% 0.00 in FEW
19:29 47.0 °F 43.3 °F 30.23 in Calm     87% 0.00 in FEW
19:34 46.9 °F 43.2 °F 30.23 in Calm     87% 0.00 in FEW
19:39 46.7 °F 43.0 °F 30.23 in Calm     87% 0.00 in FEW
19:44 46.6 °F 42.9 °F 30.23 in Calm     87% 0.00 in FEW
19:49 46.5 °F 42.8 °F 30.23 in Calm     87% 0.00 in FEW
19:54 46.5 °F 42.8 °F 30.23 in Calm     87% 0.00 in FEW
19:59 46.3 °F 42.6 °F 30.23 in Calm     87% 0.00 in FEW
20:04 46.3 °F 42.9 °F 30.23 in Calm     88% 0.00 in FEW
20:09 46.3 °F 42.9 °F 30.23 in Calm     88% 0.00 in FEW
20:14 46.1 °F 42.7 °F 30.24 in Calm     88% 0.00 in FEW
20:19 46.0 °F 42.6 °F 30.24 in Calm     88% 0.00 in FEW
20:25 46.0 °F 42.6 °F 30.24 in Calm     88% 0.00 in FEW
20:30 45.9 °F 42.5 °F 30.24 in Calm     88% 0.00 in FEW
20:35 45.7 °F 42.3 °F 30.24 in Calm     88% 0.00 in FEW
20:40 45.5 °F 42.2 °F 30.24 in Calm     88% 0.00 in FEW
20:45 45.3 °F 42.0 °F 30.24 in Calm     88% 0.00 in FEW
20:50 45.1 °F 41.8 °F 30.24 in Calm     88% 0.00 in FEW
20:55 45.1 °F 42.1 °F 30.24 in Calm     89% 0.00 in FEW
21:00 45.0 °F 42.0 °F 30.24 in Calm     89% 0.00 in FEW
21:05 45.0 °F 42.0 °F 30.24 in Calm     89% 0.00 in CLR
21:10 45.1 °F 42.1 °F 30.24 in Calm     89% 0.00 in CLR
21:15 45.1 °F 42.1 °F 30.24 in Calm     89% 0.00 in CLR
21:20 45.0 °F 42.0 °F 30.24 in Calm     89% 0.00 in CLR
21:26 45.0 °F 42.0 °F 30.24 in Calm     89% 0.00 in CLR
21:31 44.9 °F 41.9 °F 30.25 in Calm     89% 0.00 in CLR
21:36 44.8 °F 41.8 °F 30.25 in Calm     89% 0.00 in CLR
21:41 44.8 °F 41.8 °F 30.25 in Calm     89% 0.00 in CLR
21:46 44.7 °F 41.7 °F 30.25 in Calm     89% 0.00 in CLR
21:51 44.5 °F 41.5 °F 30.26 in Calm     89% 0.00 in CLR
21:56 44.5 °F 41.5 °F 30.26 in Calm     89% 0.00 in CLR
22:01 44.3 °F 41.3 °F 30.26 in Calm     89% 0.00 in CLR
22:06 44.1 °F 41.1 °F 30.26 in Calm     89% 0.00 in CLR
22:13 43.9 °F 40.9 °F 30.26 in Calm     89% 0.00 in CLR
22:18 43.8 °F 41.1 °F 30.25 in Calm     90% 0.00 in CLR
22:23 43.7 °F 41.0 °F 30.25 in Calm     90% 0.00 in CLR
22:24 43.7 °F 41.0 °F 30.25 in Calm     90% 0.00 in CLR
22:25 43.7 °F 41.0 °F 30.25 in Calm     90% 0.00 in CLR
22:30 43.5 °F 40.8 °F 30.25 in Calm     90% 0.00 in CLR
22:35 43.4 °F 40.7 °F 30.25 in Calm     90% 0.00 in CLR
22:40 43.4 °F 40.7 °F 30.25 in Calm     90% 0.00 in CLR
22:41 43.4 °F 40.7 °F 30.25 in Calm     90% 0.00 in CLR
22:46 43.4 °F 40.7 °F 30.25 in Calm     90% 0.00 in CLR
22:51 43.3 °F 40.8 °F 30.25 in Calm     91% 0.00 in CLR
22:56 43.2 °F 40.5 °F 30.25 in Calm     90% 0.00 in CLR
23:02 43.3 °F 40.8 °F 30.25 in Calm     91% 0.00 in CLR
23:12 43.1 °F 40.7 °F 30.25 in Calm     91% 0.00 in CLR
23:17 43.0 °F 40.6 °F 30.25 in Calm     91% 0.00 in CLR
23:22 43.0 °F 40.6 °F 30.25 in Calm     91% 0.00 in CLR
23:27 43.0 °F 40.6 °F 30.25 in Calm     91% 0.00 in CLR
23:32 43.0 °F 40.6 °F 30.25 in Calm     91% 0.00 in CLR
23:37 43.0 °F 40.6 °F 30.25 in Calm     91% 0.00 in CLR
23:42 43.0 °F 40.6 °F 30.25 in Calm     91% 0.00 in CLR
23:47 43.0 °F 40.6 °F 30.25 in Calm     91% 0.00 in CLR
23:52 42.9 °F 40.5 °F 30.25 in Calm     91% 0.00 in CLR
23:57 42.8 °F 40.4 °F 30.25 in Calm     91% 0.00 in CLR
Piedmont Bend
Compliments of Weather Underground - 4 mb